x

New London Ledge Ct - Ledge Light Weather Station (ldlc3) Weather Station

3:55 - Sun 14th Feb 2016 All times are EST. -5 hours from GMT.

  • Wind
    14mph, 21mph gusts
  • Aire Temp 13°f
  • Sea Pressure 1029.5mb
  • New London Ledge Ct - Ledge Light Weather Station
  • New London Ledge Ct - Ledge Light Weather Station

More Historic Weather Station data

Upgrade to MSW Pro to gain access to the past 30 days of data for over 8000 Wavebouys and Weather Stations around the globe.

Join Pro

Comparision Forecast

View Surf forecast
   
dom 02/14 3:55 14 21 mph 1029.5mb 13f
3:40 13 17 mph 1029.5mb 12f
3:25 16 20 mph 1029.5mb 12f
3:10 15 20 mph 1029.4mb 11f
2:55 14 21 mph 1029.4mb 11f
2:40 21 26 mph 1029.3mb 11f
2:25 15 22 mph 1029.4mb 10f
2:10 18 23 mph 1029.1mb 10f
1:55 17 23 mph 1029.1mb 10f
1:40 20 24 mph 1029mb 9f
1:25 17 24 mph 1029.3mb 9f
1:10 18 22 mph 1029.4mb 8f
12:55 21 24 mph 1029.2mb 8f
12:40 21 25 mph 1029mb 7f
12:25 17 24 mph 1029.1mb 6f
12:10 21 28 mph 1029.4mb 5f
11:55 21 26 mph 1029.5mb 5f
11:40 17 22 mph 1029.8mb 4f
11:25 17 23 mph 1029.7mb 3f
11:10 18 23 mph 1029.8mb 3f
10:55 20 24 mph 1029.7mb 2f
10:40 23 29 mph 1029.5mb 1f
10:25 22 28 mph 1029.6mb -1f
10:10 17 23 mph 1029.8mb -1f
9:55 21 25 mph 1029.4mb -1f
9:40 22 29 mph 1029.3mb -2f
9:25 23 30 mph 1029.2mb -3f
9:10 21 25 mph 1029.2mb -2f
8:55 23 31 mph 1029.1mb -3f
8:40 23 32 mph 1029mb -4f
8:25 23 28 mph 1029.1mb -5f
8:10 20 26 mph 1029mb -5f
7:55 21 26 mph 1028.8mb -6f
7:40 21 26 mph 1028.4mb -6f
7:25 21 26 mph 1028mb -6f
7:10 23 31 mph 1027.7mb -6f
6:55 24 32 mph 1027.1mb -6f
6:40 22 28 mph 1027mb -6f
6:25 20 28 mph 1026.8mb -6f
6:10 23 30 mph 1026.3mb -6f
5:55 24 29 mph 1026.1mb -5f
5:40 20 30 mph 1025.9mb -5f
5:25 20 25 mph 1025.9mb -5f
5:10 18 26 mph 1025.8mb -5f
4:55 21 30 mph 1025.5mb -5f
4:40 25 32 mph 1024.9mb -5f
4:25 24 30 mph 1024.9mb -5f
4:10 25 31 mph 1024.7mb -5f
3:55 21 28 mph 1024.9mb -4f
3:40 21 26 mph 1024.6mb -4f
3:25 23 30 mph 1024.2mb -3f
3:10 25 31 mph 1023.9mb -3f
2:55 29 36 mph 1023.7mb -3f
2:40 23 30 mph 1023.7mb -2f
2:25 21 28 mph 1023.6mb -2f
2:10 24 30 mph 1023.2mb -2f
1:55 25 31 mph 1022.9mb -1f
1:40 28 37 mph 1022.9mb -1f
1:25 28 37 mph 1022.5mb -1f
1:10 30 39 mph 1022.6mb -
12:55 26 37 mph 1022.8mb -
12:40 31 41 mph 1022.5mb 1f
12:25 25 32 mph 1022.4mb 1f
12:10 26 33 mph 1022.4mb 1f
sáb 02/13 6:55 23 33 mph 1020.3mb 7f
6:40 24 33 mph 1020mb 8f
6:25 23 30 mph 1019.7mb 8f
6:10 22 29 mph 1019.4mb 8f
5:55 25 30 mph 1018.8mb 9f
5:40 36 44 mph 1017.7mb 10f
5:25 30 39 mph 1017.2mb 11f
5:10 31 39 mph 1016.5mb 12f
4:55 31 38 mph 1016.1mb 13f
4:40 28 41 mph 1015.6mb 15f
4:25 30 40 mph 1015.2mb 15f
4:10 25 36 mph 1014.9mb 16f
3:55 31 41 mph 1014.4mb 16f
3:40 25 34 mph 1014.2mb 17f
3:25 24 33 mph 1013.8mb 17f
3:10 33 41 mph 1013.1mb 17f
2:55 28 33 mph 1012.9mb 18f
2:40 28 36 mph 1012.4mb 19f
2:25 29 36 mph 1012.1mb 20f
2:10 24 31 mph 1011.9mb 20f
1:55 25 32 mph 1011.8mb 21f
1:40 26 36 mph 1011.6mb 20f
1:25 28 34 mph 1011.5mb 20f
1:10 22 28 mph 1011.9mb 20f
12:55 29 34 mph 1011.4mb 21f
12:40 24 31 mph 1011.5mb 22f
12:25 26 33 mph 1011.6mb 22f
12:10 22 31 mph 1011.7mb 22f
11:55 28 34 mph 1011.6mb 22f
11:40 26 37 mph 1011.8mb 22f
11:25 23 29 mph 1011.5mb 23f
11:10 26 34 mph 1011.4mb 23f
10:55 21 25 mph 1011.5mb 24f
10:40 26 30 mph 1011.2mb 22f
10:25 28 33 mph 1011.2mb 22f
10:10 30 37 mph 1010.8mb 22f
9:55 28 40 mph 1010.7mb 22f
9:40 29 36 mph 1010.5mb 23f
9:25 25 32 mph 1010.5mb 22f
9:10 22 30 mph 1010.7mb 22f
8:55 21 29 mph 1010.7mb 21f
8:40 20 26 mph 1010.6mb 21f
8:25 16 21 mph 1010.6mb 20f
8:10 14 18 mph 1010.7mb 20f
7:55 10 13 mph 1010.6mb 20f
7:40 10 13 mph 1010.4mb 19f
7:25 11 16 mph 1010.2mb 19f
7:10 11 14 mph 1010.2mb 19f
6:55 11 15 mph 1009.9mb 19f
6:40 13 16 mph 1009.7mb 19f
6:25 11 14 mph 1009.6mb 19f
6:10 15 18 mph 1009.6mb 19f
5:55 16 21 mph 1009.5mb 19f
5:40 17 22 mph 1009.4mb 20f
5:25 16 21 mph 1009.1mb 20f
5:10 15 17 mph 1009.1mb 20f
4:55 14 16 mph 1009mb 20f
4:40 14 17 mph 1008.9mb 20f
4:25 10 11 mph 1009mb 20f
4:10 9 11 mph 1009mb 20f
3:55 9 11 mph 1008.9mb 20f
3:40 9 11 mph 1009mb 20f
3:25 9 10 mph 1009.1mb 20f
3:10 8 10 mph 1009.2mb 20f
2:55 8 10 mph 1009.5mb 21f
2:40 9 11 mph 1009.5mb 21f
2:25 9 11 mph 1009.5mb 20f
2:10 10 11 mph 1009.7mb 21f
1:55 10 13 mph 1009.9mb 21f
1:40 10 13 mph 1010.1mb 21f
1:25 11 13 mph 1010.3mb 21f
1:10 10 13 mph 1010.5mb 21f
12:55 11 14 mph 1010.5mb 21f
12:40 8 10 mph 1010.7mb 21f
12:25 8 9 mph 1011.2mb 21f
12:10 9 11 mph 1011.3mb 21f
vie 02/12 6:55 14 17 mph 1015.4mb 24f
6:40 13 16 mph 1015.7mb 25f
6:25 11 16 mph 1015.8mb 24f
6:10 14 17 mph 1015.8mb 24f
5:55 14 16 mph 1015.9mb 24f
5:40 14 17 mph 1016mb 24f
5:25 14 20 mph 1016.1mb 24f
5:10 16 21 mph 1016.2mb 24f
4:55 15 20 mph 1016.3mb 24f
4:40 16 20 mph 1016.5mb 24f
4:25 15 20 mph 1016.8mb 24f
4:10 16 20 mph 1016.9mb 24f
3:55 15 20 mph 1017.2mb 24f
3:40 13 16 mph 1017.4mb 24f
3:25 13 20 mph 1017.6mb 24f
3:10 13 15 mph 1017.7mb 23f
2:55 15 18 mph 1017.7mb 23f
2:40 14 17 mph 1017.8mb 23f
2:25 14 21 mph 1018mb 23f
2:10 13 16 mph 1018.1mb 23f
1:55 13 17 mph 1018.4mb 23f
1:40 13 16 mph 1018.6mb 23f
1:25 11 16 mph 1019mb 23f
1:10 11 16 mph 1019.4mb 22f
12:55 13 16 mph 1019.5mb 22f
12:40 10 14 mph 1019.9mb 22f
12:25 10 16 mph 1020.3mb 22f
12:10 10 14 mph 1020.7mb 22f
11:55 9 11 mph 1021mb 21f
11:40 9 13 mph 1021.3mb 22f
11:25 9 15 mph 1021.6mb 22f
11:10 10 13 mph 1021.7mb 21f
10:55 11 22 mph 1021.7mb 20f
10:40 10 14 mph 1021.8mb 20f
10:25 11 16 mph 1022.1mb 19f
10:10 15 20 mph 1022.1mb 19f
9:55 14 18 mph 1022.5mb 19f
9:40 16 21 mph 1022.5mb 19f
9:25 16 20 mph 1022.4mb 19f
9:10 15 21 mph 1022.7mb 18f
8:55 15 18 mph 1022.8mb 17f
8:40 15 20 mph 1022.9mb 17f
8:25 14 21 mph 1022.8mb 16f
8:10 10 14 mph 1022.9mb 14f
7:55 14 16 mph 1022.8mb 14f
7:40 13 16 mph 1022.6mb 13f
7:25 13 15 mph 1022.6mb 12f
7:10 11 14 mph 1022.7mb 12f
6:55 11 14 mph 1022.7mb 12f
6:40 11 13 mph 1022.7mb 12f
6:25 10 13 mph 1022.7mb 12f
6:10 10 13 mph 1022.6mb 12f
5:55 8 10 mph 1022.7mb 12f
5:40 8 10 mph 1022.6mb 12f
5:25 7 10 mph 1022.4mb 12f
5:10 9 14 mph 1022.3mb 12f
4:55 10 13 mph 1022.2mb 12f
4:40 10 13 mph 1021.7mb 12f
4:25 16 20 mph 1021.3mb 13f
4:10 15 17 mph 1021.5mb 13f
3:55 16 21 mph 1021.5mb 13f
3:40 13 17 mph 1021.6mb 13f
3:25 15 22 mph 1021.4mb 13f
3:10 16 21 mph 1021.3mb 13f
2:55 20 24 mph 1021.1mb 14f
2:40 16 23 mph 1021.1mb 14f
2:25 17 23 mph 1021mb 14f
2:10 17 24 mph 1020.7mb 14f
1:55 17 22 mph 1020.6mb 14f
1:40 20 26 mph 1020.2mb 14f
1:25 22 28 mph 1020mb 14f
1:10 20 25 mph 1020.1mb 14f
12:55 18 23 mph 1019.9mb 15f
12:40 17 24 mph 1019.5mb 16f
12:25 18 22 mph 1019mb 16f
12:10 20 23 mph 1018.8mb 16f
jue 02/11 6:55 25 31 mph 1013.7mb 20f
6:40 22 30 mph 1013.5mb 21f
6:25 22 29 mph 1013.1mb 21f
6:10 24 33 mph 1012.6mb 22f
5:55 23 34 mph 1012.2mb 22f
5:40 29 34 mph 1011.2mb 22f
5:25 28 34 mph 1010.9mb 23f
5:10 29 40 mph 1010.5mb 23f
4:55 24 30 mph 1010.4mb 23f
4:40 33 39 mph 1009.5mb 23f
4:25 28 39 mph 1009.6mb 24f
4:10 29 36 mph 1009.2mb 24f
3:55 25 33 mph 1009.1mb 24f
3:40 22 29 mph 1009mb 24f
3:25 28 34 mph 1008.6mb 24f
3:10 24 29 mph 1008.5mb 24f
2:55 29 36 mph 1008.2mb 24f
2:40 26 41 mph 1008mb 25f
2:25 28 34 mph 1007.4mb 24f
2:10 33 43 mph 1006.9mb 24f
1:55 29 38 mph 1007.2mb 24f
1:40 25 37 mph 1007mb 25f
1:25 28 38 mph 1006.9mb 25f
1:10 24 31 mph 1007.3mb 25f
12:55 26 33 mph 1007.1mb 25f
12:40 30 37 mph 1006.6mb 26f
12:25 24 30 mph 1007.2mb 25f
12:10 25 30 mph 1007.1mb 25f
11:55 26 31 mph 1007.3mb 26f
11:40 24 30 mph 1007.4mb 26f
11:25 22 32 mph 1007.7mb 26f
11:10 20 25 mph 1007.9mb 26f
10:55 18 24 mph 1007.9mb 25f
10:40 20 25 mph 1008mb 25f
10:25 20 25 mph 1007.9mb 25f
10:10 20 23 mph 1007.7mb 25f
9:55 16 21 mph 1007.9mb 25f
9:40 18 24 mph 1007.9mb 24f
9:25 18 22 mph 1007.7mb 25f
9:10 22 25 mph 1007.6mb 25f
8:55 20 25 mph 1007.7mb 25f
8:40 20 23 mph 1007.3mb 24f
8:25 21 26 mph 1007.3mb 24f
8:10 20 25 mph 1006.9mb 25f
7:55 15 20 mph 1006.9mb 25f
7:40 18 24 mph 1006.6mb 25f
7:25 16 21 mph 1006.5mb 25f
7:10 16 20 mph 1006.3mb 25f
6:55 15 17 mph 1006mb 25f
6:40 9 11 mph 1005.8mb 26f
6:25 11 18 mph 1005.7mb 26f
6:10 11 15 mph 1005.6mb 27f
5:55 10 14 mph 1005.3mb 27f
5:40 13 16 mph 1005.2mb 27f
5:25 13 15 mph 1005.2mb 28f
5:10 9 14 mph 1005.2mb 29f
4:55 6 7 mph 1005.2mb 29f
4:40 7 8 mph 1004.9mb 29f
4:25 9 11 mph 1004.7mb 29f
4:10 11 15 mph 1004.5mb 29f
3:55 10 14 mph 1004.4mb 29f
3:40 13 14 mph 1004.2mb 29f
3:25 11 14 mph 1004.3mb 29f
3:10 11 13 mph 1004.3mb 30f
2:55 10 11 mph 1004.2mb 30f
2:40 10 11 mph 1004.3mb 29f
2:25 9 10 mph 1004.5mb 30f
2:10 10 13 mph 1004.6mb 30f
1:55 10 11 mph 1004.4mb 30f
1:40 9 10 mph 1004.4mb 31f
1:25 9 10 mph 1004.4mb 31f
1:10 8 9 mph 1004.5mb 31f
12:55 8 10 mph 1004.6mb 31f
12:40 8 9 mph 1004.6mb 31f
12:25 8 10 mph 1004.6mb 32f
12:10 9 10 mph 1004.6mb 32f